sensor_id;sensor_type;location;lat;lon;timestamp;pressure;altitude;pressure_sealevel;temperature
75428;BMP280;64008;55.612;37.698;2023-04-22T00:01:48;99236.84;;;18.95
75428;BMP280;64008;55.612;37.698;2023-04-22T00:04:13;99237.00;;;18.85
75428;BMP280;64008;55.612;37.698;2023-04-22T00:06:39;99227.91;;;19.27
75428;BMP280;64008;55.612;37.698;2023-04-22T00:09:04;99239.81;;;19.21
75428;BMP280;64008;55.612;37.698;2023-04-22T00:11:30;99216.47;;;19.21
75428;BMP280;64008;55.612;37.698;2023-04-22T00:13:55;99231.03;;;20.02
75428;BMP280;64008;55.612;37.698;2023-04-22T00:16:21;99224.66;;;19.53
75428;BMP280;64008;55.612;37.698;2023-04-22T00:18:47;99222.16;;;18.51
75428;BMP280;64008;55.612;37.698;2023-04-22T00:21:13;99228.88;;;18.48
75428;BMP280;64008;55.612;37.698;2023-04-22T00:23:38;99227.75;;;18.03
75428;BMP280;64008;55.612;37.698;2023-04-22T00:26:04;99224.25;;;18.21
75428;BMP280;64008;55.612;37.698;2023-04-22T00:28:30;99222.94;;;17.86
75428;BMP280;64008;55.612;37.698;2023-04-22T00:30:55;99222.75;;;18.29
75428;BMP280;64008;55.612;37.698;2023-04-22T00:35:48;99230.28;;;18.60
75428;BMP280;64008;55.612;37.698;2023-04-22T00:38:13;99226.94;;;18.95
75428;BMP280;64008;55.612;37.698;2023-04-22T00:40:39;99227.97;;;19.22
75428;BMP280;64008;55.612;37.698;2023-04-22T00:43:05;99225.28;;;19.36
75428;BMP280;64008;55.612;37.698;2023-04-22T00:45:31;99219.78;;;19.05
75428;BMP280;64008;55.612;37.698;2023-04-22T00:47:56;99224.88;;;17.80
75428;BMP280;64008;55.612;37.698;2023-04-22T00:50:22;99224.81;;;17.66
75428;BMP280;64008;55.612;37.698;2023-04-22T00:52:47;99218.91;;;18.21
75428;BMP280;64008;55.612;37.698;2023-04-22T00:55:13;99215.13;;;18.55
75428;BMP280;64008;55.612;37.698;2023-04-22T00:57:39;99217.63;;;19.43
75428;BMP280;64008;55.612;37.698;2023-04-22T01:00:05;99229.75;;;18.44
75428;BMP280;64008;55.612;37.698;2023-04-22T01:02:31;99180.78;;;18.29
75428;BMP280;64008;55.612;37.698;2023-04-22T01:04:57;99182.59;;;18.34
75428;BMP280;64008;55.612;37.698;2023-04-22T01:07:23;99180.16;;;18.65
75428;BMP280;64008;55.612;37.698;2023-04-22T01:09:48;99182.00;;;18.37
75428;BMP280;64008;55.612;37.698;2023-04-22T01:12:14;99181.72;;;18.39
75428;BMP280;64008;55.612;37.698;2023-04-22T01:14:40;99171.44;;;18.60
75428;BMP280;64008;55.612;37.698;2023-04-22T01:17:06;99167.69;;;17.81
75428;BMP280;64008;55.612;37.698;2023-04-22T01:19:31;99176.47;;;17.68
75428;BMP280;64008;55.612;37.698;2023-04-22T01:21:59;99170.59;;;18.31
75428;BMP280;64008;55.612;37.698;2023-04-22T01:24:26;99166.53;;;19.03
75428;BMP280;64008;55.612;37.698;2023-04-22T01:26:52;99167.84;;;18.64
75428;BMP280;64008;55.612;37.698;2023-04-22T01:29:18;99165.38;;;18.68
75428;BMP280;64008;55.612;37.698;2023-04-22T01:31:43;99173.19;;;18.36
75428;BMP280;64008;55.612;37.698;2023-04-22T01:34:09;99173.75;;;18.20
75428;BMP280;64008;55.612;37.698;2023-04-22T01:36:35;99164.81;;;18.10
75428;BMP280;64008;55.612;37.698;2023-04-22T01:39:01;99172.78;;;17.97
75428;BMP280;64008;55.612;37.698;2023-04-22T01:41:26;99163.59;;;18.03
75428;BMP280;64008;55.612;37.698;2023-04-22T01:43:52;99153.19;;;18.01
75428;BMP280;64008;55.612;37.698;2023-04-22T01:46:18;99165.81;;;18.28
75428;BMP280;64008;55.612;37.698;2023-04-22T01:48:44;99158.66;;;17.77
75428;BMP280;64008;55.612;37.698;2023-04-22T01:51:15;99163.22;;;17.77
75428;BMP280;64008;55.612;37.698;2023-04-22T01:53:41;99158.63;;;17.96
75428;BMP280;64008;55.612;37.698;2023-04-22T01:56:07;99159.53;;;17.35
75428;BMP280;64008;55.612;37.698;2023-04-22T01:58:33;99154.41;;;17.38
75428;BMP280;64008;55.612;37.698;2023-04-22T02:00:59;99160.53;;;18.09
75428;BMP280;64008;55.612;37.698;2023-04-22T02:03:25;99157.09;;;17.76
75428;BMP280;64008;55.612;37.698;2023-04-22T02:05:50;99161.63;;;18.08
75428;BMP280;64008;55.612;37.698;2023-04-22T02:08:16;99160.22;;;18.44
75428;BMP280;64008;55.612;37.698;2023-04-22T02:10:41;99160.34;;;17.54
75428;BMP280;64008;55.612;37.698;2023-04-22T02:13:07;99168.63;;;17.90
75428;BMP280;64008;55.612;37.698;2023-04-22T02:15:32;99160.00;;;18.40
75428;BMP280;64008;55.612;37.698;2023-04-22T02:17:58;99163.38;;;17.99
75428;BMP280;64008;55.612;37.698;2023-04-22T02:20:24;99173.28;;;18.31
75428;BMP280;64008;55.612;37.698;2023-04-22T02:22:49;99161.41;;;18.05
75428;BMP280;64008;55.612;37.698;2023-04-22T02:25:15;99164.28;;;17.76
75428;BMP280;64008;55.612;37.698;2023-04-22T02:27:41;99168.72;;;17.66
75428;BMP280;64008;55.612;37.698;2023-04-22T02:30:07;99171.31;;;17.53
75428;BMP280;64008;55.612;37.698;2023-04-22T02:32:33;99166.00;;;17.85
75428;BMP280;64008;55.612;37.698;2023-04-22T02:35:01;99172.25;;;17.00
75428;BMP280;64008;55.612;37.698;2023-04-22T02:37:27;99177.22;;;16.87
75428;BMP280;64008;55.612;37.698;2023-04-22T02:39:52;99172.25;;;17.62
75428;BMP280;64008;55.612;37.698;2023-04-22T02:42:18;99176.19;;;18.16
75428;BMP280;64008;55.612;37.698;2023-04-22T02:44:43;99173.53;;;17.83
75428;BMP280;64008;55.612;37.698;2023-04-22T02:47:09;99172.38;;;17.70
75428;BMP280;64008;55.612;37.698;2023-04-22T02:49:34;99178.38;;;18.74
75428;BMP280;64008;55.612;37.698;2023-04-22T02:52:00;99179.88;;;17.12
75428;BMP280;64008;55.612;37.698;2023-04-22T02:54:25;99179.50;;;17.94
75428;BMP280;64008;55.612;37.698;2023-04-22T02:56:51;99178.25;;;18.52
75428;BMP280;64008;55.612;37.698;2023-04-22T02:59:16;99174.63;;;17.63
75428;BMP280;64008;55.612;37.698;2023-04-22T03:01:42;99181.50;;;17.50
75428;BMP280;64008;55.612;37.698;2023-04-22T03:04:07;99182.47;;;17.73
75428;BMP280;64008;55.612;37.698;2023-04-22T03:06:33;99177.97;;;18.07
75428;BMP280;64008;55.612;37.698;2023-04-22T03:08:58;99176.63;;;17.34
75428;BMP280;64008;55.612;37.698;2023-04-22T03:11:24;99175.56;;;17.72
75428;BMP280;64008;55.612;37.698;2023-04-22T03:13:49;99180.78;;;17.97
75428;BMP280;64008;55.612;37.698;2023-04-22T03:16:16;99182.41;;;17.60
75428;BMP280;64008;55.612;37.698;2023-04-22T03:18:41;99183.63;;;17.48
75428;BMP280;64008;55.612;37.698;2023-04-22T03:21:07;99179.38;;;17.28
75428;BMP280;64008;55.612;37.698;2023-04-22T03:23:32;99183.94;;;17.66
75428;BMP280;64008;55.612;37.698;2023-04-22T03:25:58;99182.00;;;17.53
75428;BMP280;64008;55.612;37.698;2023-04-22T03:28:23;99186.91;;;18.16
75428;BMP280;64008;55.612;37.698;2023-04-22T03:30:49;99177.97;;;18.07
75428;BMP280;64008;55.612;37.698;2023-04-22T03:33:14;99179.38;;;18.32
75428;BMP280;64008;55.612;37.698;2023-04-22T03:35:40;99192.19;;;17.50
75428;BMP280;64008;55.612;37.698;2023-04-22T03:38:06;99186.69;;;17.93
75428;BMP280;64008;55.612;37.698;2023-04-22T03:40:32;99187.63;;;17.70
75428;BMP280;64008;55.612;37.698;2023-04-22T03:42:57;99190.56;;;17.30
75428;BMP280;64008;55.612;37.698;2023-04-22T03:45:23;99192.94;;;18.68
75428;BMP280;64008;55.612;37.698;2023-04-22T03:47:48;99202.25;;;17.91
75428;BMP280;64008;55.612;37.698;2023-04-22T03:50:14;99199.44;;;18.90
75428;BMP280;64008;55.612;37.698;2023-04-22T03:52:39;99198.91;;;18.79
75428;BMP280;64008;55.612;37.698;2023-04-22T03:55:05;99196.59;;;18.72
75428;BMP280;64008;55.612;37.698;2023-04-22T03:57:31;99207.25;;;17.79
75428;BMP280;64008;55.612;37.698;2023-04-22T03:59:56;99202.22;;;18.10
75428;BMP280;64008;55.612;37.698;2023-04-22T04:02:22;99198.44;;;17.98
75428;BMP280;64008;55.612;37.698;2023-04-22T04:04:47;99209.50;;;17.72
75428;BMP280;64008;55.612;37.698;2023-04-22T04:07:13;99209.50;;;17.72
75428;BMP280;64008;55.612;37.698;2023-04-22T04:09:38;99209.34;;;17.82
75428;BMP280;64008;55.612;37.698;2023-04-22T04:12:04;99207.09;;;17.51
75428;BMP280;64008;55.612;37.698;2023-04-22T04:14:30;99209.53;;;18.38
75428;BMP280;64008;55.612;37.698;2023-04-22T04:16:55;99219.41;;;19.11
75428;BMP280;64008;55.612;37.698;2023-04-22T04:19:21;99214.72;;;19.53
75428;BMP280;64008;55.612;37.698;2023-04-22T04:21:46;99215.31;;;19.00
75428;BMP280;64008;55.612;37.698;2023-04-22T04:24:12;99217.06;;;19.32
75428;BMP280;64008;55.612;37.698;2023-04-22T04:26:37;99213.72;;;19.13
75428;BMP280;64008;55.612;37.698;2023-04-22T04:29:03;99220.19;;;19.12
75428;BMP280;64008;55.612;37.698;2023-04-22T04:31:29;99218.16;;;19.31
75428;BMP280;64008;55.612;37.698;2023-04-22T04:33:55;99216.09;;;19.64
75428;BMP280;64008;55.612;37.698;2023-04-22T04:36:22;99215.75;;;20.11
75428;BMP280;64008;55.612;37.698;2023-04-22T04:38:50;99217.53;;;19.48
75428;BMP280;64008;55.612;37.698;2023-04-22T04:41:16;99216.25;;;19.32
75428;BMP280;64008;55.612;37.698;2023-04-22T04:43:41;99215.72;;;18.79
75428;BMP280;64008;55.612;37.698;2023-04-22T04:46:10;99218.38;;;18.52
75428;BMP280;64008;55.612;37.698;2023-04-22T04:48:35;99219.00;;;18.90
75428;BMP280;64008;55.612;37.698;2023-04-22T04:51:01;99217.38;;;18.62
75428;BMP280;64008;55.612;37.698;2023-04-22T04:53:28;99216.72;;;18.70
75428;BMP280;64008;55.612;37.698;2023-04-22T04:55:54;99217.28;;;18.67
75428;BMP280;64008;55.612;37.698;2023-04-22T04:58:19;99214.31;;;18.54
75428;BMP280;64008;55.612;37.698;2023-04-22T05:00:45;99220.53;;;18.36
75428;BMP280;64008;55.612;37.698;2023-04-22T05:03:11;99220.53;;;18.03
75428;BMP280;64008;55.612;37.698;2023-04-22T05:05:36;99221.22;;;18.09
75428;BMP280;64008;55.612;37.698;2023-04-22T05:08:02;99226.66;;;18.36
75428;BMP280;64008;55.612;37.698;2023-04-22T05:10:27;99220.91;;;18.43
75428;BMP280;64008;55.612;37.698;2023-04-22T05:12:53;99224.91;;;18.46
75428;BMP280;64008;55.612;37.698;2023-04-22T05:15:18;99227.53;;;18.32
75428;BMP280;64008;55.612;37.698;2023-04-22T05:17:44;99228.59;;;18.17
75428;BMP280;64008;55.612;37.698;2023-04-22T05:20:10;99230.47;;;18.17
75428;BMP280;64008;55.612;37.698;2023-04-22T05:22:35;99233.16;;;18.63
75428;BMP280;64008;55.612;37.698;2023-04-22T05:25:04;99237.56;;;18.40
75428;BMP280;64008;55.612;37.698;2023-04-22T05:27:30;99226.94;;;18.35
75428;BMP280;64008;55.612;37.698;2023-04-22T05:29:55;99227.31;;;18.28
75428;BMP280;64008;55.612;37.698;2023-04-22T05:32:21;99228.78;;;18.07
75428;BMP280;64008;55.612;37.698;2023-04-22T05:34:46;99232.56;;;18.20
75428;BMP280;64008;55.612;37.698;2023-04-22T05:37:12;99227.31;;;17.96
75428;BMP280;64008;55.612;37.698;2023-04-22T05:39:37;99226.88;;;18.07
75428;BMP280;64008;55.612;37.698;2023-04-22T05:42:03;99230.34;;;19.23
75428;BMP280;64008;55.612;37.698;2023-04-22T05:44:28;99237.16;;;19.57
75428;BMP280;64008;55.612;37.698;2023-04-22T05:46:54;99230.38;;;19.60
75428;BMP280;64008;55.612;37.698;2023-04-22T05:49:20;99225.91;;;19.69
75428;BMP280;64008;55.612;37.698;2023-04-22T05:51:45;99221.44;;;19.64
75428;BMP280;64008;55.612;37.698;2023-04-22T05:54:11;99228.22;;;19.62
75428;BMP280;64008;55.612;37.698;2023-04-22T05:56:36;99228.94;;;19.76
75428;BMP280;64008;55.612;37.698;2023-04-22T05:59:02;99231.19;;;20.68
75428;BMP280;64008;55.612;37.698;2023-04-22T06:01:27;99227.53;;;19.56
75428;BMP280;64008;55.612;37.698;2023-04-22T06:03:53;99232.19;;;20.81
75428;BMP280;64008;55.612;37.698;2023-04-22T06:06:18;99229.28;;;21.60
75428;BMP280;64008;55.612;37.698;2023-04-22T06:08:44;99225.94;;;22.37
75428;BMP280;64008;55.612;37.698;2023-04-22T06:11:10;99223.72;;;21.83
75428;BMP280;64008;55.612;37.698;2023-04-22T06:13:35;99219.63;;;22.33
75428;BMP280;64008;55.612;37.698;2023-04-22T06:16:01;99227.25;;;22.90
75428;BMP280;64008;55.612;37.698;2023-04-22T06:18:29;99224.56;;;23.11
75428;BMP280;64008;55.612;37.698;2023-04-22T06:20:56;99222.50;;;22.87
75428;BMP280;64008;55.612;37.698;2023-04-22T06:23:22;99224.66;;;22.72
75428;BMP280;64008;55.612;37.698;2023-04-22T06:25:47;99228.81;;;22.70
75428;BMP280;64008;55.612;37.698;2023-04-22T06:28:13;99220.63;;;22.58
75428;BMP280;64008;55.612;37.698;2023-04-22T06:30:38;99232.44;;;21.80
75428;BMP280;64008;55.612;37.698;2023-04-22T06:33:04;99230.34;;;21.85
75428;BMP280;64008;55.612;37.698;2023-04-22T06:35:30;99228.22;;;23.15
75428;BMP280;64008;55.612;37.698;2023-04-22T06:37:55;99215.47;;;22.73
75428;BMP280;64008;55.612;37.698;2023-04-22T06:40:21;99219.88;;;22.78
75428;BMP280;64008;55.612;37.698;2023-04-22T06:42:47;99220.91;;;23.15
75428;BMP280;64008;55.612;37.698;2023-04-22T06:45:12;99220.97;;;22.09
75428;BMP280;64008;55.612;37.698;2023-04-22T06:47:38;99217.22;;;22.99
75428;BMP280;64008;55.612;37.698;2023-04-22T06:50:06;99224.84;;;21.38
75428;BMP280;64008;55.612;37.698;2023-04-22T06:52:32;99221.69;;;22.27
75428;BMP280;64008;55.612;37.698;2023-04-22T06:54:58;99217.88;;;21.55
75428;BMP280;64008;55.612;37.698;2023-04-22T06:57:24;99213.69;;;22.57
75428;BMP280;64008;55.612;37.698;2023-04-22T06:59:49;99209.22;;;23.11
75428;BMP280;64008;55.612;37.698;2023-04-22T07:02:15;99211.72;;;22.27
75428;BMP280;64008;55.612;37.698;2023-04-22T07:04:40;99215.53;;;21.62
75428;BMP280;64008;55.612;37.698;2023-04-22T07:07:06;99199.94;;;23.00
75428;BMP280;64008;55.612;37.698;2023-04-22T07:09:31;99205.00;;;23.89
75428;BMP280;64008;55.612;37.698;2023-04-22T07:11:57;99204.06;;;22.47
75428;BMP280;64008;55.612;37.698;2023-04-22T07:14:24;99205.56;;;22.65
75428;BMP280;64008;55.612;37.698;2023-04-22T07:16:51;99223.63;;;22.26
75428;BMP280;64008;55.612;37.698;2023-04-22T07:19:17;99222.72;;;22.52
75428;BMP280;64008;55.612;37.698;2023-04-22T07:21:42;99220.19;;;22.00
75428;BMP280;64008;55.612;37.698;2023-04-22T07:24:08;99218.53;;;21.34
75428;BMP280;64008;55.612;37.698;2023-04-22T07:26:39;99222.66;;;21.49
75428;BMP280;64008;55.612;37.698;2023-04-22T07:29:05;99219.63;;;21.51
75428;BMP280;64008;55.612;37.698;2023-04-22T07:31:34;99218.81;;;22.41
75428;BMP280;64008;55.612;37.698;2023-04-22T07:33:59;99208.00;;;22.79
75428;BMP280;64008;55.612;37.698;2023-04-22T07:36:25;99210.72;;;22.70
75428;BMP280;64008;55.612;37.698;2023-04-22T07:38:51;99217.81;;;22.07
75428;BMP280;64008;55.612;37.698;2023-04-22T07:41:16;99207.69;;;22.81
75428;BMP280;64008;55.612;37.698;2023-04-22T07:43:42;99209.66;;;23.80
75428;BMP280;64008;55.612;37.698;2023-04-22T07:46:07;99221.88;;;23.65
75428;BMP280;64008;55.612;37.698;2023-04-22T07:48:33;99217.00;;;22.15
75428;BMP280;64008;55.612;37.698;2023-04-22T07:50:59;99225.81;;;21.43
75428;BMP280;64008;55.612;37.698;2023-04-22T07:53:24;99214.25;;;21.25
75428;BMP280;64008;55.612;37.698;2023-04-22T07:55:50;99213.16;;;21.60
75428;BMP280;64008;55.612;37.698;2023-04-22T07:58:16;99212.47;;;21.98
75428;BMP280;64008;55.612;37.698;2023-04-22T08:00:41;99210.72;;;22.70
75428;BMP280;64008;55.612;37.698;2023-04-22T08:03:07;99218.84;;;21.59
75428;BMP280;64008;55.612;37.698;2023-04-22T08:05:32;99223.44;;;21.41
75428;BMP280;64008;55.612;37.698;2023-04-22T08:07:58;99205.56;;;22.65
75428;BMP280;64008;55.612;37.698;2023-04-22T08:10:24;99206.75;;;22.47
75428;BMP280;64008;55.612;37.698;2023-04-22T08:12:50;99215.84;;;21.60
75428;BMP280;64008;55.612;37.698;2023-04-22T08:15:15;99213.94;;;21.44
75428;BMP280;64008;55.612;37.698;2023-04-22T08:17:41;99215.00;;;21.95
75428;BMP280;64008;55.612;37.698;2023-04-22T08:20:07;99219.59;;;21.85
75428;BMP280;64008;55.612;37.698;2023-04-22T08:22:33;99211.91;;;21.67
75428;BMP280;64008;55.612;37.698;2023-04-22T08:24:59;99217.91;;;21.37
75428;BMP280;64008;55.612;37.698;2023-04-22T08:27:25;99215.69;;;21.57
75428;BMP280;64008;55.612;37.698;2023-04-22T08:29:52;99218.34;;;22.39
75428;BMP280;64008;55.612;37.698;2023-04-22T08:32:17;99226.75;;;21.55
75428;BMP280;64008;55.612;37.698;2023-04-22T08:34:44;99228.94;;;21.27
75428;BMP280;64008;55.612;37.698;2023-04-22T08:37:10;99222.75;;;21.96
75428;BMP280;64008;55.612;37.698;2023-04-22T08:39:35;99236.25;;;21.53
75428;BMP280;64008;55.612;37.698;2023-04-22T08:42:01;99222.66;;;21.32
75428;BMP280;64008;55.612;37.698;2023-04-22T08:44:27;99214.56;;;22.69
75428;BMP280;64008;55.612;37.698;2023-04-22T08:46:54;99217.09;;;21.63
75428;BMP280;64008;55.612;37.698;2023-04-22T08:49:22;99211.44;;;22.20
75428;BMP280;64008;55.612;37.698;2023-04-22T08:51:48;99224.69;;;21.09
75428;BMP280;64008;55.612;37.698;2023-04-22T08:54:14;99224.38;;;21.36
75428;BMP280;64008;55.612;37.698;2023-04-22T08:56:42;99228.69;;;20.80
75428;BMP280;64008;55.612;37.698;2023-04-22T08:59:12;99222.03;;;21.52
75428;BMP280;64008;55.612;37.698;2023-04-22T09:01:41;99209.16;;;21.84
75428;BMP280;64008;55.612;37.698;2023-04-22T09:04:08;99220.97;;;22.09
75428;BMP280;64008;55.612;37.698;2023-04-22T09:06:34;99219.28;;;21.96
75428;BMP280;64008;55.612;37.698;2023-04-22T09:09:02;99210.19;;;22.56
75428;BMP280;64008;55.612;37.698;2023-04-22T09:11:29;99212.59;;;23.00
75428;BMP280;64008;55.612;37.698;2023-04-22T09:13:55;99203.66;;;22.87
75428;BMP280;64008;55.612;37.698;2023-04-22T09:16:20;99205.44;;;22.53
75428;BMP280;64008;55.612;37.698;2023-04-22T09:18:46;99206.31;;;22.27
75428;BMP280;64008;55.612;37.698;2023-04-22T09:21:11;99209.69;;;22.24
75428;BMP280;64008;55.612;37.698;2023-04-22T09:23:51;99208.22;;;22.27
75428;BMP280;64008;55.612;37.698;2023-04-22T09:26:21;99219.25;;;22.13
75428;BMP280;64008;55.612;37.698;2023-04-22T09:28:54;99204.53;;;22.49
75428;BMP280;64008;55.612;37.698;2023-04-22T09:31:20;99209.88;;;22.79
75428;BMP280;64008;55.612;37.698;2023-04-22T09:33:52;99208.47;;;22.13
75428;BMP280;64008;55.612;37.698;2023-04-22T09:36:35;99216.22;;;22.15
75428;BMP280;64008;55.612;37.698;2023-04-22T09:39:06;99211.63;;;23.25
75428;BMP280;64008;55.612;37.698;2023-04-22T09:41:37;99212.09;;;22.17
75428;BMP280;64008;55.612;37.698;2023-04-22T09:44:04;99211.63;;;22.54
75428;BMP280;64008;55.612;37.698;2023-04-22T09:46:33;99218.13;;;22.14
75428;BMP280;64008;55.612;37.698;2023-04-22T09:49:00;99214.00;;;22.17
75428;BMP280;64008;55.612;37.698;2023-04-22T09:51:26;99211.25;;;23.14
75428;BMP280;64008;55.612;37.698;2023-04-22T09:54:05;99203.47;;;24.13
75428;BMP280;64008;55.612;37.698;2023-04-22T09:56:46;99202.00;;;24.92
75428;BMP280;64008;55.612;37.698;2023-04-22T09:59:20;99202.91;;;25.53
75428;BMP280;64008;55.612;37.698;2023-04-22T10:01:46;99204.09;;;25.11
75428;BMP280;64008;55.612;37.698;2023-04-22T10:04:12;99205.53;;;24.81
75428;BMP280;64008;55.612;37.698;2023-04-22T10:06:39;99207.03;;;23.59
75428;BMP280;64008;55.612;37.698;2023-04-22T10:09:05;99201.66;;;24.04
75428;BMP280;64008;55.612;37.698;2023-04-22T10:11:32;99205.69;;;24.11
75428;BMP280;64008;55.612;37.698;2023-04-22T10:13:58;99202.09;;;24.06
75428;BMP280;64008;55.612;37.698;2023-04-22T10:16:26;99195.56;;;24.69
75428;BMP280;64008;55.612;37.698;2023-04-22T10:18:54;99205.69;;;23.65
75428;BMP280;64008;55.612;37.698;2023-04-22T10:21:23;99197.34;;;24.65
75428;BMP280;64008;55.612;37.698;2023-04-22T10:23:49;99191.41;;;24.10
75428;BMP280;64008;55.612;37.698;2023-04-22T10:26:37;99193.88;;;24.03
75428;BMP280;64008;55.612;37.698;2023-04-22T10:29:07;99191.03;;;22.79
75428;BMP280;64008;55.612;37.698;2023-04-22T10:31:38;99190.97;;;24.08
75428;BMP280;64008;55.612;37.698;2023-04-22T10:34:13;99194.34;;;23.05
75428;BMP280;64008;55.612;37.698;2023-04-22T10:37:18;99193.59;;;23.17
75428;BMP280;64008;55.612;37.698;2023-04-22T10:40:10;99201.81;;;23.75
75428;BMP280;64008;55.612;37.698;2023-04-22T10:42:40;99191.75;;;24.98
75428;BMP280;64008;55.612;37.698;2023-04-22T10:45:06;99191.19;;;24.15
75428;BMP280;64008;55.612;37.698;2023-04-22T10:47:36;99197.41;;;25.49
75428;BMP280;64008;55.612;37.698;2023-04-22T10:50:26;99190.69;;;25.31
75428;BMP280;64008;55.612;37.698;2023-04-22T10:52:55;99189.09;;;25.58
75428;BMP280;64008;55.612;37.698;2023-04-22T10:55:22;99187.13;;;25.71
75428;BMP280;64008;55.612;37.698;2023-04-22T10:57:49;99184.91;;;26.08
75428;BMP280;64008;55.612;37.698;2023-04-22T11:02:46;99187.06;;;25.39
75428;BMP280;64008;55.612;37.698;2023-04-22T11:05:38;99184.47;;;26.57
75428;BMP280;64008;55.612;37.698;2023-04-22T11:08:17;99198.91;;;25.94
75428;BMP280;64008;55.612;37.698;2023-04-22T11:10:49;99194.81;;;25.84
75428;BMP280;64008;55.612;37.698;2023-04-22T11:13:19;99192.94;;;25.41
75428;BMP280;64008;55.612;37.698;2023-04-22T11:15:50;99188.47;;;24.52
75428;BMP280;64008;55.612;37.698;2023-04-22T11:18:24;99190.22;;;25.41
75428;BMP280;64008;55.612;37.698;2023-04-22T11:20:50;99191.31;;;25.84
75428;BMP280;64008;55.612;37.698;2023-04-22T11:23:25;99191.91;;;25.77
75428;BMP280;64008;55.612;37.698;2023-04-22T11:26:02;99186.66;;;25.68
75428;BMP280;64008;55.612;37.698;2023-04-22T11:28:28;99178.59;;;25.84
75428;BMP280;64008;55.612;37.698;2023-04-22T11:31:01;99168.06;;;26.69
75428;BMP280;64008;55.612;37.698;2023-04-22T11:33:27;99178.13;;;25.66
75428;BMP280;64008;55.612;37.698;2023-04-22T11:35:53;99174.97;;;25.80
75428;BMP280;64008;55.612;37.698;2023-04-22T11:38:19;99178.91;;;25.67
75428;BMP280;64008;55.612;37.698;2023-04-22T11:40:45;99178.19;;;26.02
75428;BMP280;64008;55.612;37.698;2023-04-22T11:43:11;99182.81;;;25.85
75428;BMP280;64008;55.612;37.698;2023-04-22T11:45:37;99176.78;;;25.16
75428;BMP280;64008;55.612;37.698;2023-04-22T11:48:05;99185.28;;;25.90
75428;BMP280;64008;55.612;37.698;2023-04-22T11:50:33;99187.34;;;25.50
75428;BMP280;64008;55.612;37.698;2023-04-22T11:53:01;99184.66;;;25.50
75428;BMP280;64008;55.612;37.698;2023-04-22T11:55:35;99185.16;;;26.34
75428;BMP280;64008;55.612;37.698;2023-04-22T12:00:38;99173.66;;;25.90
75428;BMP280;64008;55.612;37.698;2023-04-22T12:03:19;99165.50;;;26.76
75428;BMP280;64008;55.612;37.698;2023-04-22T12:05:46;99158.59;;;26.79
75428;BMP280;64008;55.612;37.698;2023-04-22T12:08:16;99181.88;;;25.94
75428;BMP280;64008;55.612;37.698;2023-04-22T12:13:16;99157.38;;;26.76
75428;BMP280;64008;55.612;37.698;2023-04-22T12:15:44;99158.31;;;26.45
75428;BMP280;64008;55.612;37.698;2023-04-22T12:18:09;99162.69;;;25.67
75428;BMP280;64008;55.612;37.698;2023-04-22T12:20:40;99153.59;;;26.62
75428;BMP280;64008;55.612;37.698;2023-04-22T12:23:13;99154.66;;;26.57
75428;BMP280;64008;55.612;37.698;2023-04-22T12:25:40;99160.28;;;26.48
75428;BMP280;64008;55.612;37.698;2023-04-22T12:28:06;99157.84;;;26.43
75428;BMP280;64008;55.612;37.698;2023-04-22T12:30:31;99154.59;;;25.39
75428;BMP280;64008;55.612;37.698;2023-04-22T12:32:57;99158.19;;;24.99
75428;BMP280;64008;55.612;37.698;2023-04-22T12:35:23;99153.16;;;25.13
75428;BMP280;64008;55.612;37.698;2023-04-22T12:37:48;99151.03;;;25.82
75428;BMP280;64008;55.612;37.698;2023-04-22T12:40:14;99148.41;;;26.02
75428;BMP280;64008;55.612;37.698;2023-04-22T12:42:40;99142.16;;;25.98
75428;BMP280;64008;55.612;37.698;2023-04-22T12:45:06;99144.56;;;26.19
75428;BMP280;64008;55.612;37.698;2023-04-22T12:47:31;99139.81;;;26.70
75428;BMP280;64008;55.612;37.698;2023-04-22T12:49:57;99141.50;;;26.40
75428;BMP280;64008;55.612;37.698;2023-04-22T12:52:25;99134.34;;;26.47
75428;BMP280;64008;55.612;37.698;2023-04-22T12:54:51;99140.31;;;26.95
75428;BMP280;64008;55.612;37.698;2023-04-22T12:57:16;99137.38;;;27.04
75428;BMP280;64008;55.612;37.698;2023-04-22T12:59:42;99148.28;;;26.49
75428;BMP280;64008;55.612;37.698;2023-04-22T13:02:09;99140.91;;;25.79
75428;BMP280;64008;55.612;37.698;2023-04-22T13:04:34;99132.31;;;26.09
75428;BMP280;64008;55.612;37.698;2023-04-22T13:07:00;99134.09;;;26.56
75428;BMP280;64008;55.612;37.698;2023-04-22T13:09:26;99137.34;;;26.62
75428;BMP280;64008;55.612;37.698;2023-04-22T13:11:51;99138.38;;;26.37
75428;BMP280;64008;55.612;37.698;2023-04-22T13:14:17;99132.47;;;26.16
75428;BMP280;64008;55.612;37.698;2023-04-22T13:16:43;99143.19;;;26.64
75428;BMP280;64008;55.612;37.698;2023-04-22T13:19:09;99140.38;;;26.41
75428;BMP280;64008;55.612;37.698;2023-04-22T13:21:34;99147.47;;;26.84
75428;BMP280;64008;55.612;37.698;2023-04-22T13:24:00;99151.94;;;26.37
75428;BMP280;64008;55.612;37.698;2023-04-22T13:26:26;99155.50;;;26.42
75428;BMP280;64008;55.612;37.698;2023-04-22T13:28:52;99151.06;;;26.53
75428;BMP280;64008;55.612;37.698;2023-04-22T13:31:17;99150.88;;;26.07
75428;BMP280;64008;55.612;37.698;2023-04-22T13:33:43;99148.97;;;26.62
75428;BMP280;64008;55.612;37.698;2023-04-22T13:36:09;99149.81;;;26.47
75428;BMP280;64008;55.612;37.698;2023-04-22T13:38:35;99150.09;;;26.26
75428;BMP280;64008;55.612;37.698;2023-04-22T13:41:00;99140.75;;;27.20
75428;BMP280;64008;55.612;37.698;2023-04-22T13:43:26;99157.13;;;27.04
75428;BMP280;64008;55.612;37.698;2023-04-22T13:45:51;99152.00;;;26.80
75428;BMP280;64008;55.612;37.698;2023-04-22T13:48:17;99153.06;;;26.36
75428;BMP280;64008;55.612;37.698;2023-04-22T13:50:42;99152.22;;;27.10
75428;BMP280;64008;55.612;37.698;2023-04-22T13:53:09;99141.22;;;26.83
75428;BMP280;64008;55.612;37.698;2023-04-22T13:55:37;99150.22;;;27.07
75428;BMP280;64008;55.612;37.698;2023-04-22T13:58:03;99153.66;;;27.27
75428;BMP280;64008;55.612;37.698;2023-04-22T14:00:30;99160.63;;;27.05
75428;BMP280;64008;55.612;37.698;2023-04-22T14:02:56;99151.81;;;26.69
75428;BMP280;64008;55.612;37.698;2023-04-22T14:05:22;99151.16;;;26.95